KMDD/MDD METAR and TAF weather

Enter ICAO airport designator
Station Type Date Time Source
KMDD METAR 2019/10/23 20:15 UTC NOAA

KMDD 232015Z AUTO 23009G20KT 10SM CLR 28/00 A2991 RMK AO2 T02801005


Station Type Date Time Source
KMDD Decoded METAR 2019/10/23 20:15 UTC NOAA

Midland, Midland Airpark, TX, United States (KMDD) 32-02-11N 102-06-03W
Oct 23, 2019 - 04:15 PM EDT / 2019.10.23 2015 UTC
Wind: from the SW (230 degrees) at 10 MPH (9 KT) gusting to 23 MPH (20 KT):0
Visibility: 10 mile(s):0
Sky conditions: clear
Temperature: 82.4 F (28.0 C)
Dew Point: 31.1 F (-0.5 C)
Relative Humidity: 15%
Pressure (altimeter): 29.91 in. Hg (1012 hPa)
ob: KMDD 232015Z AUTO 23009G20KT 10SM CLR 28/00 A2991 RMK AO2 T02801005
cycle: 20

Station Type Date Time Source
KMDD TAF UTC NOAA

Error!

Example: see airport list